createdAt,value
2023-04-27T00:00:49.386Z,79.60
2023-04-27T00:03:16.550Z,79.60
2023-04-27T00:05:44.217Z,80.30
2023-04-27T00:08:11.016Z,81.80
2023-04-27T00:10:37.701Z,81.50
2023-04-27T00:13:04.399Z,81.70
2023-04-27T00:15:31.031Z,80.10
2023-04-27T00:17:57.767Z,79.60
2023-04-27T00:20:25.132Z,79.40
2023-04-27T00:22:51.864Z,79.40
2023-04-27T00:25:18.591Z,78.50
2023-04-27T00:27:45.225Z,78.60
2023-04-27T00:30:12.079Z,79.10
2023-04-27T00:32:38.840Z,80.00
2023-04-27T00:35:06.143Z,80.80
2023-04-27T00:37:32.793Z,81.00
2023-04-27T00:39:59.436Z,81.10
2023-04-27T00:42:26.285Z,81.10
2023-04-27T00:44:52.952Z,81.20
2023-04-27T00:47:19.689Z,81.10
2023-04-27T00:49:46.472Z,80.90
2023-04-27T00:52:13.220Z,80.80
2023-04-27T00:54:42.311Z,81.80
2023-04-27T00:57:09.128Z,82.90
2023-04-27T00:59:35.898Z,83.10
2023-04-27T01:02:02.907Z,84.30
2023-04-27T01:04:32.304Z,84.60
2023-04-27T01:06:59.249Z,83.00
2023-04-27T01:09:26.196Z,83.10
2023-04-27T01:11:52.825Z,84.40
2023-04-27T01:14:19.873Z,84.70
2023-04-27T01:16:46.640Z,84.80
2023-04-27T01:19:13.638Z,84.20
2023-04-27T01:21:40.852Z,84.10
2023-04-27T01:24:08.276Z,84.50
2023-04-27T01:26:34.937Z,83.60
2023-04-27T01:29:01.768Z,83.80
2023-04-27T01:31:28.541Z,83.40
2023-04-27T01:33:55.487Z,83.40
2023-04-27T01:36:22.286Z,83.50
2023-04-27T01:38:48.948Z,83.80
2023-04-27T01:41:18.451Z,83.70
2023-04-27T01:43:45.194Z,84.00
2023-04-27T01:46:13.542Z,83.60
2023-04-27T01:48:40.895Z,83.40
2023-04-27T01:51:07.760Z,83.80
2023-04-27T01:53:34.535Z,83.90
2023-04-27T01:56:01.438Z,84.30
2023-04-27T01:58:28.210Z,85.40
2023-04-27T02:00:57.854Z,87.20
2023-04-27T02:03:24.653Z,87.40
2023-04-27T02:05:51.634Z,87.60
2023-04-27T02:08:18.311Z,87.50
2023-04-27T02:10:44.994Z,86.50
2023-04-27T02:13:11.707Z,87.60
2023-04-27T02:15:40.741Z,87.40
2023-04-27T02:18:07.570Z,87.50
2023-04-27T02:20:34.384Z,87.30
2023-04-27T02:23:02.943Z,87.30
2023-04-27T02:25:29.666Z,87.70
2023-04-27T02:27:56.536Z,88.10
2023-04-27T02:30:23.746Z,88.30
2023-04-27T02:32:51.083Z,89.10
2023-04-27T02:35:17.828Z,89.50
2023-04-27T02:37:44.520Z,90.00
2023-04-27T02:40:11.555Z,90.20
2023-04-27T02:42:38.927Z,90.40
2023-04-27T02:45:09.688Z,90.60
2023-04-27T02:47:36.440Z,90.70
2023-04-27T02:50:04.037Z,90.70
2023-04-27T02:52:30.714Z,90.70
2023-04-27T02:54:57.461Z,90.80
2023-04-27T02:57:24.177Z,91.00
2023-04-27T02:59:50.939Z,91.10
2023-04-27T03:02:17.726Z,91.20
2023-04-27T03:04:44.630Z,91.40
2023-04-27T03:07:12.808Z,91.50
2023-04-27T03:09:39.481Z,92.00
2023-04-27T03:12:06.239Z,91.90
2023-04-27T03:14:32.998Z,92.00
2023-04-27T03:17:00.573Z,92.20
2023-04-27T03:19:27.378Z,92.40
2023-04-27T03:21:53.993Z,92.50
2023-04-27T03:24:21.721Z,92.80
2023-04-27T03:26:48.409Z,92.90
2023-04-27T03:29:15.121Z,93.00
2023-04-27T03:31:42.079Z,93.10
2023-04-27T03:34:08.773Z,93.20
2023-04-27T03:36:35.720Z,93.30
2023-04-27T03:39:04.752Z,93.40
2023-04-27T03:41:31.423Z,93.40
2023-04-27T03:43:58.036Z,93.60
2023-04-27T03:46:24.737Z,93.80
2023-04-27T03:48:51.673Z,94.00
2023-04-27T03:51:18.353Z,94.50
2023-04-27T03:53:48.027Z,94.60
2023-04-27T03:56:14.813Z,94.70
2023-04-27T03:58:41.517Z,94.60
2023-04-27T04:01:10.132Z,94.70
2023-04-27T04:03:37.621Z,95.00
2023-04-27T04:06:04.586Z,94.80
2023-04-27T04:08:32.907Z,94.50
2023-04-27T04:11:00.078Z,94.70
2023-04-27T04:13:27.035Z,94.80
2023-04-27T04:16:07.778Z,94.90
2023-04-27T04:18:35.726Z,95.40
2023-04-27T04:21:02.927Z,95.50
2023-04-27T04:23:29.716Z,96.10
2023-04-27T04:25:57.586Z,96.00
2023-04-27T04:28:25.088Z,96.30
2023-04-27T04:30:52.375Z,96.70
2023-04-27T04:33:19.393Z,96.80
2023-04-27T04:35:46.917Z,97.00
2023-04-27T04:38:13.615Z,97.10
2023-04-27T04:40:43.761Z,97.10
2023-04-27T04:43:12.269Z,97.10
2023-04-27T04:45:38.922Z,97.20
2023-04-27T04:48:06.083Z,97.20
2023-04-27T04:50:32.794Z,97.20
2023-04-27T04:52:59.501Z,97.50
2023-04-27T04:55:28.330Z,97.90
2023-04-27T04:57:55.088Z,98.00
2023-04-27T05:00:22.452Z,97.80
2023-04-27T05:02:49.536Z,98.10
2023-04-27T05:05:16.691Z,98.00
2023-04-27T05:07:43.450Z,97.80
2023-04-27T05:10:10.311Z,98.40
2023-04-27T05:12:37.078Z,98.70
2023-04-27T05:15:04.802Z,98.10
2023-04-27T05:17:31.721Z,97.90
2023-04-27T05:19:58.440Z,98.20
2023-04-27T05:22:28.175Z,98.10
2023-04-27T05:24:55.432Z,98.20
2023-04-27T05:27:22.173Z,98.40
2023-04-27T05:29:48.836Z,98.30
2023-04-27T05:32:15.693Z,98.30
2023-04-27T05:34:45.666Z,98.10
2023-04-27T05:37:14.066Z,97.90
2023-04-27T05:39:40.797Z,98.30
2023-04-27T05:42:07.484Z,98.50
2023-04-27T05:44:34.368Z,99.40
2023-04-27T05:47:01.208Z,98.90
2023-04-27T05:49:27.830Z,98.50
2023-04-27T05:51:54.485Z,98.40
2023-04-27T05:54:21.091Z,98.00
2023-04-27T05:56:47.786Z,97.60
2023-04-27T05:59:14.663Z,96.80
2023-04-27T06:01:41.485Z,97.30
2023-04-27T06:04:08.425Z,96.70
2023-04-27T06:06:35.356Z,96.50
2023-04-27T06:09:02.172Z,96.80
2023-04-27T06:11:28.841Z,96.80
2023-04-27T06:13:55.542Z,96.20
2023-04-27T06:16:23.558Z,96.10
2023-04-27T06:18:51.225Z,95.60
2023-04-27T06:21:18.038Z,95.60
2023-04-27T06:23:44.874Z,96.20
2023-04-27T06:26:11.683Z,96.00
2023-04-27T06:28:38.412Z,95.70
2023-04-27T06:31:06.131Z,95.90
2023-04-27T06:33:33.287Z,96.10
2023-04-27T06:36:01.286Z,95.60
2023-04-27T06:38:28.172Z,95.20
2023-04-27T06:40:55.045Z,95.30
2023-04-27T06:43:22.206Z,95.50
2023-04-27T06:45:49.006Z,94.90
2023-04-27T06:48:16.955Z,94.80
2023-04-27T06:50:44.187Z,94.30
2023-04-27T06:53:11.211Z,93.10
2023-04-27T06:55:38.032Z,93.20
2023-04-27T06:58:04.793Z,93.00
2023-04-27T07:00:32.108Z,93.10
2023-04-27T07:02:59.064Z,92.80
2023-04-27T07:05:26.063Z,92.60
2023-04-27T07:07:52.727Z,92.50
2023-04-27T07:10:19.682Z,90.90
2023-04-27T07:12:49.757Z,90.20
2023-04-27T07:15:16.623Z,89.30
2023-04-27T07:17:43.369Z,89.20
2023-04-27T07:20:10.294Z,88.30
2023-04-27T07:22:36.955Z,86.70
2023-04-27T07:25:05.335Z,86.90
2023-04-27T07:27:32.900Z,85.60
2023-04-27T07:29:59.613Z,83.00
2023-04-27T07:32:28.772Z,80.10
2023-04-27T07:34:56.086Z,80.40
2023-04-27T07:37:23.236Z,79.50
2023-04-27T07:39:54.396Z,79.20
2023-04-27T07:42:25.080Z,79.60
2023-04-27T07:44:52.526Z,77.70
2023-04-27T07:47:19.619Z,76.70
2023-04-27T07:49:47.087Z,77.20
2023-04-27T07:52:14.357Z,75.80
2023-04-27T07:54:41.104Z,74.40
2023-04-27T07:57:11.845Z,73.50
2023-04-27T07:59:39.054Z,71.50
2023-04-27T08:02:18.429Z,69.40
2023-04-27T08:04:47.306Z,67.60
2023-04-27T08:07:16.030Z,65.50
2023-04-27T08:09:43.119Z,65.90
2023-04-27T08:12:09.848Z,67.00
2023-04-27T08:14:36.762Z,67.20
2023-04-27T08:17:03.650Z,67.00
2023-04-27T08:19:30.431Z,67.50
2023-04-27T08:21:57.068Z,69.10
2023-04-27T08:24:23.886Z,68.50
2023-04-27T08:26:50.582Z,68.10
2023-04-27T08:29:27.094Z,67.20
2023-04-27T08:32:01.993Z,66.30
2023-04-27T08:34:29.123Z,66.00
2023-04-27T08:36:56.787Z,66.50
2023-04-27T08:39:24.450Z,65.70
2023-04-27T08:41:51.604Z,65.00
2023-04-27T08:44:18.877Z,62.50
2023-04-27T08:46:45.864Z,61.90
2023-04-27T08:49:15.135Z,60.50
2023-04-27T08:51:43.787Z,60.30
2023-04-27T08:54:10.628Z,61.40
2023-04-27T08:56:53.288Z,60.20
2023-04-27T08:59:20.017Z,59.60
2023-04-27T09:01:48.770Z,59.60
2023-04-27T09:04:17.781Z,60.00
2023-04-27T09:06:45.000Z,60.70
2023-04-27T09:09:22.287Z,60.00
2023-04-27T09:11:49.937Z,61.60
2023-04-27T09:14:17.827Z,59.80
2023-04-27T09:16:44.840Z,59.70
2023-04-27T09:19:12.109Z,58.70
2023-04-27T09:21:38.919Z,59.40
2023-04-27T09:24:13.116Z,58.00
2023-04-27T09:26:42.784Z,58.60
2023-04-27T09:29:09.853Z,55.70
2023-04-27T09:31:36.652Z,57.70
2023-04-27T09:34:04.448Z,57.10
2023-04-27T09:36:32.589Z,56.60
2023-04-27T09:39:02.489Z,58.00
2023-04-27T09:41:29.510Z,55.90
2023-04-27T09:43:58.139Z,55.80
2023-04-27T09:46:26.281Z,56.60
2023-04-27T09:48:54.436Z,55.10
2023-04-27T09:51:21.182Z,54.90
2023-04-27T09:53:53.989Z,53.90
2023-04-27T09:56:29.614Z,52.80
2023-04-27T09:59:26.877Z,53.40
2023-04-27T10:02:02.878Z,52.70
2023-04-27T10:04:56.334Z,52.70
2023-04-27T10:07:23.228Z,53.00
2023-04-27T10:09:53.665Z,56.30
2023-04-27T10:12:27.076Z,54.30
2023-04-27T10:14:54.617Z,53.10
2023-04-27T10:17:28.830Z,53.40
2023-04-27T10:20:03.758Z,55.20
2023-04-27T10:22:48.006Z,54.60
2023-04-27T10:25:22.013Z,54.50
2023-04-27T10:27:53.888Z,54.20
2023-04-27T10:30:22.180Z,53.40
2023-04-27T10:32:53.137Z,54.60
2023-04-27T10:35:21.605Z,55.10
2023-04-27T10:37:48.923Z,53.40
2023-04-27T10:40:19.190Z,53.90
2023-04-27T10:42:48.188Z,53.90
2023-04-27T10:45:25.732Z,55.40
2023-04-27T10:47:59.974Z,54.90
2023-04-27T10:50:27.545Z,54.30
2023-04-27T10:52:54.290Z,55.50
2023-04-27T10:55:23.132Z,54.90
2023-04-27T10:57:56.996Z,52.70
2023-04-27T11:00:35.435Z,52.80
2023-04-27T11:03:14.494Z,53.10
2023-04-27T11:05:42.844Z,53.50
2023-04-27T11:08:15.422Z,51.80
2023-04-27T11:10:49.088Z,52.60
2023-04-27T11:13:21.384Z,51.20
2023-04-27T11:15:54.786Z,53.30
2023-04-27T11:18:24.182Z,53.80
2023-04-27T11:20:53.664Z,53.60
2023-04-27T11:23:29.178Z,53.80
2023-04-27T11:25:56.956Z,52.30
2023-04-27T11:28:24.381Z,52.70
2023-04-27T11:30:58.623Z,52.70
2023-04-27T11:33:26.926Z,53.20
2023-04-27T11:35:54.055Z,53.00
2023-04-27T11:38:21.961Z,54.80
2023-04-27T11:41:01.210Z,52.30
2023-04-27T11:43:28.561Z,53.50
2023-04-27T11:45:56.297Z,54.70
2023-04-27T11:48:24.088Z,53.80
2023-04-27T11:50:53.306Z,52.60
2023-04-27T11:53:31.992Z,52.40
2023-04-27T11:56:05.259Z,53.60
2023-04-27T11:58:36.669Z,52.60
2023-04-27T12:01:04.794Z,52.90
2023-04-27T12:03:32.088Z,53.80
2023-04-27T12:06:11.654Z,53.40
2023-04-27T12:08:46.053Z,53.50
2023-04-27T12:11:12.724Z,52.80
2023-04-27T12:13:39.582Z,53.20
2023-04-27T12:16:06.888Z,52.90
2023-04-27T12:18:33.677Z,54.60
2023-04-27T12:21:03.117Z,53.30
2023-04-27T12:23:30.139Z,52.60
2023-04-27T12:25:56.796Z,53.20
2023-04-27T12:28:23.499Z,52.00
2023-04-27T12:30:53.735Z,52.10
2023-04-27T12:33:20.806Z,52.60
2023-04-27T12:35:47.559Z,51.90
2023-04-27T12:38:14.214Z,53.30
2023-04-27T12:40:40.845Z,51.10
2023-04-27T12:43:09.333Z,52.30
2023-04-27T12:45:36.001Z,52.10
2023-04-27T12:48:04.422Z,50.80
2023-04-27T12:50:32.481Z,52.30
2023-04-27T12:53:01.959Z,49.40
2023-04-27T12:55:32.910Z,51.20
2023-04-27T12:58:01.412Z,49.70
2023-04-27T13:00:29.529Z,50.70
2023-04-27T13:02:56.591Z,51.00
2023-04-27T13:05:23.802Z,53.00
2023-04-27T13:07:53.442Z,53.90
2023-04-27T13:10:20.106Z,52.40
2023-04-27T13:12:46.838Z,50.80
2023-04-27T13:15:13.553Z,50.40
2023-04-27T13:17:41.708Z,50.90
2023-04-27T13:20:10.779Z,51.50
2023-04-27T13:22:37.761Z,52.30
2023-04-27T13:25:06.014Z,52.70
2023-04-27T13:27:32.757Z,50.10
2023-04-27T13:30:02.312Z,51.90
2023-04-27T13:32:30.161Z,51.00
2023-04-27T13:35:00.640Z,50.80
2023-04-27T13:37:30.382Z,49.90
2023-04-27T13:39:57.055Z,49.90
2023-04-27T13:42:29.282Z,50.30
2023-04-27T13:44:57.037Z,51.30
2023-04-27T13:47:23.834Z,51.20
2023-04-27T13:49:53.056Z,51.40
2023-04-27T13:52:19.828Z,52.60
2023-04-27T13:54:46.487Z,51.70
2023-04-27T13:57:13.186Z,50.90
2023-04-27T13:59:39.815Z,50.20
2023-04-27T14:02:06.510Z,50.60
2023-04-27T14:04:33.417Z,50.50
2023-04-27T14:07:00.248Z,52.20
2023-04-27T14:09:27.313Z,52.10
2023-04-27T14:11:57.221Z,51.60
2023-04-27T14:14:24.231Z,51.10
2023-04-27T14:16:51.417Z,52.60
2023-04-27T14:19:20.280Z,51.90
2023-04-27T14:21:49.118Z,54.00
2023-04-27T14:24:15.864Z,53.10
2023-04-27T14:26:47.380Z,52.50
2023-04-27T14:29:14.756Z,51.40
2023-04-27T14:31:41.905Z,51.40
2023-04-27T14:34:08.762Z,50.80
2023-04-27T14:36:35.810Z,51.70
2023-04-27T14:39:04.329Z,50.40
2023-04-27T14:41:31.079Z,50.60
2023-04-27T14:43:57.767Z,52.00
2023-04-27T14:46:24.440Z,51.50
2023-04-27T14:48:51.392Z,52.40
2023-04-27T14:51:18.276Z,50.60
2023-04-27T14:53:45.041Z,50.00
2023-04-27T14:56:12.250Z,51.40
2023-04-27T14:58:39.154Z,52.10
2023-04-27T15:01:06.991Z,49.50
2023-04-27T15:03:34.043Z,49.60
2023-04-27T15:06:01.955Z,49.00
2023-04-27T15:08:30.741Z,48.60
2023-04-27T15:10:59.923Z,48.70
2023-04-27T15:13:27.757Z,50.10
2023-04-27T15:15:58.784Z,50.30
2023-04-27T15:18:25.929Z,51.90
2023-04-27T15:20:55.903Z,52.80
2023-04-27T15:23:23.565Z,51.50
2023-04-27T15:25:51.699Z,52.20
2023-04-27T15:28:19.062Z,53.10
2023-04-27T15:30:46.177Z,52.80
2023-04-27T15:33:14.554Z,53.20
2023-04-27T15:35:41.545Z,51.20
2023-04-27T15:38:12.958Z,50.90
2023-04-27T15:40:40.127Z,52.00
2023-04-27T15:43:09.133Z,52.50
2023-04-27T15:45:35.887Z,52.90
2023-04-27T15:48:02.679Z,53.30
2023-04-27T15:50:32.429Z,52.30
2023-04-27T15:52:59.142Z,52.10
2023-04-27T15:55:25.828Z,51.20
2023-04-27T15:57:53.396Z,51.00
2023-04-27T16:00:22.232Z,51.20
2023-04-27T16:02:49.489Z,50.60
2023-04-27T16:05:16.914Z,50.00
2023-04-27T16:07:45.002Z,49.70
2023-04-27T16:10:12.583Z,49.40
2023-04-27T16:12:39.519Z,49.60
2023-04-27T16:15:09.388Z,50.10
2023-04-27T16:17:37.949Z,50.20
2023-04-27T16:20:08.330Z,49.50
2023-04-27T16:22:36.154Z,49.00
2023-04-27T16:25:03.966Z,48.80
2023-04-27T16:27:30.864Z,49.90
2023-04-27T16:29:57.674Z,49.90
2023-04-27T16:32:24.496Z,49.90
2023-04-27T16:34:52.791Z,50.80
2023-04-27T16:37:19.505Z,50.10
2023-04-27T16:39:46.511Z,51.70
2023-04-27T16:42:18.475Z,52.00
2023-04-27T16:44:45.370Z,52.00
2023-04-27T16:47:12.347Z,52.10
2023-04-27T16:49:39.038Z,52.50
2023-04-27T16:52:06.012Z,52.60
2023-04-27T16:54:32.759Z,52.30
2023-04-27T16:56:59.554Z,51.90
2023-04-27T16:59:26.621Z,52.70
2023-04-27T17:01:53.353Z,51.50
2023-04-27T17:04:20.304Z,51.00
2023-04-27T17:06:48.801Z,51.40
2023-04-27T17:09:15.774Z,51.60
2023-04-27T17:11:42.720Z,51.70
2023-04-27T17:14:09.480Z,52.00
2023-04-27T17:16:36.181Z,52.30
2023-04-27T17:19:03.751Z,51.40
2023-04-27T17:21:31.607Z,52.50
2023-04-27T17:23:58.300Z,53.40
2023-04-27T17:26:25.087Z,54.50
2023-04-27T17:28:51.835Z,53.60
2023-04-27T17:31:18.555Z,53.40
2023-04-27T17:33:45.848Z,53.50
2023-04-27T17:36:12.890Z,53.60
2023-04-27T17:38:39.629Z,53.40
2023-04-27T17:41:06.373Z,53.10
2023-04-27T17:43:33.132Z,53.10
2023-04-27T17:45:59.897Z,53.50
2023-04-27T17:48:26.834Z,54.60
2023-04-27T17:50:53.850Z,54.10
2023-04-27T17:53:20.512Z,53.80
2023-04-27T17:55:47.938Z,54.60
2023-04-27T17:58:15.560Z,55.00
2023-04-27T18:00:43.218Z,56.00
2023-04-27T18:03:10.900Z,56.30
2023-04-27T18:05:37.900Z,56.30
2023-04-27T18:08:04.727Z,56.50
2023-04-27T18:10:34.069Z,55.80
2023-04-27T18:13:00.843Z,55.90
2023-04-27T18:15:27.595Z,55.70
2023-04-27T18:17:55.014Z,56.10
2023-04-27T18:20:23.377Z,56.90
2023-04-27T18:22:50.235Z,57.50
2023-04-27T18:25:17.006Z,57.70
2023-04-27T18:27:45.193Z,56.80
2023-04-27T18:30:12.349Z,58.30
2023-04-27T18:32:39.232Z,57.60
2023-04-27T18:35:09.407Z,57.60
2023-04-27T18:37:36.329Z,58.00
2023-04-27T18:40:05.759Z,59.00
2023-04-27T18:42:32.555Z,58.70
2023-04-27T18:45:00.788Z,58.80
2023-04-27T18:47:27.895Z,59.00
2023-04-27T18:49:57.524Z,58.20
2023-04-27T18:52:24.361Z,58.50
2023-04-27T18:54:51.192Z,58.20
2023-04-27T18:57:18.050Z,58.90
2023-04-27T18:59:44.785Z,59.20
2023-04-27T19:02:13.626Z,59.40
2023-04-27T19:04:45.373Z,58.20
2023-04-27T19:07:19.752Z,58.40
2023-04-27T19:09:49.161Z,57.80
2023-04-27T19:12:15.977Z,57.50
2023-04-27T19:14:42.651Z,57.10
2023-04-27T19:17:11.620Z,57.20
2023-04-27T19:19:38.385Z,58.10
2023-04-27T19:22:05.406Z,58.10
2023-04-27T19:24:32.497Z,57.80
2023-04-27T19:26:59.318Z,58.80
2023-04-27T19:29:28.989Z,58.40
2023-04-27T19:31:56.131Z,58.30
2023-04-27T19:34:23.055Z,58.20
2023-04-27T19:36:50.110Z,58.40
2023-04-27T19:39:19.301Z,58.70
2023-04-27T19:41:46.166Z,58.60
2023-04-27T19:44:13.035Z,57.70
2023-04-27T19:46:40.048Z,57.70
2023-04-27T19:49:06.842Z,57.60
2023-04-27T19:51:33.684Z,58.00
2023-04-27T19:54:00.543Z,58.20
2023-04-27T19:56:27.293Z,58.50
2023-04-27T19:58:54.065Z,59.10
2023-04-27T20:01:21.924Z,58.90
2023-04-27T20:03:48.777Z,59.30
2023-04-27T20:06:15.799Z,60.00
2023-04-27T20:08:42.508Z,60.80
2023-04-27T20:11:09.339Z,60.80
2023-04-27T20:13:36.134Z,60.70
2023-04-27T20:16:03.047Z,60.50
2023-04-27T20:18:31.810Z,60.30
2023-04-27T20:21:01.762Z,59.80
2023-04-27T20:23:28.432Z,60.30
2023-04-27T20:25:55.168Z,60.80
2023-04-27T20:28:21.902Z,61.70
2023-04-27T20:30:51.029Z,62.50
2023-04-27T20:33:18.351Z,62.50
2023-04-27T20:35:46.722Z,62.60
2023-04-27T20:38:13.683Z,62.20
2023-04-27T20:40:43.084Z,62.00
2023-04-27T20:43:09.825Z,61.60
2023-04-27T20:45:36.610Z,61.00
2023-04-27T20:48:03.436Z,61.10
2023-04-27T20:50:30.890Z,61.10
2023-04-27T20:52:57.637Z,61.20
2023-04-27T20:55:24.406Z,61.90
2023-04-27T20:57:51.255Z,62.60
2023-04-27T21:00:20.582Z,63.00
2023-04-27T21:02:51.173Z,63.10
2023-04-27T21:05:17.987Z,63.30
2023-04-27T21:07:44.650Z,63.30
2023-04-27T21:10:12.673Z,63.60
2023-04-27T21:12:39.403Z,63.40
2023-04-27T21:15:06.575Z,63.80
2023-04-27T21:17:33.370Z,64.10
2023-04-27T21:19:59.995Z,64.50
2023-04-27T21:22:26.845Z,65.20
2023-04-27T21:24:53.532Z,65.50
2023-04-27T21:27:20.379Z,66.10
2023-04-27T21:29:47.019Z,67.00
2023-04-27T21:32:13.709Z,67.10
2023-04-27T21:34:40.683Z,67.70
2023-04-27T21:37:07.318Z,67.70
2023-04-27T21:39:34.042Z,67.40
2023-04-27T21:42:00.743Z,67.70
2023-04-27T21:44:27.407Z,67.70
2023-04-27T21:46:54.045Z,68.00
2023-04-27T21:49:20.948Z,68.60
2023-04-27T21:51:47.680Z,69.00
2023-04-27T21:54:14.592Z,69.80
2023-04-27T21:56:41.752Z,70.40
2023-04-27T21:59:08.483Z,70.60
2023-04-27T22:01:35.208Z,70.90
2023-04-27T22:04:04.103Z,70.80
2023-04-27T22:06:30.981Z,70.70
2023-04-27T22:08:57.803Z,71.20
2023-04-27T22:11:24.591Z,71.50
2023-04-27T22:13:51.291Z,71.90
2023-04-27T22:16:17.982Z,72.00
2023-04-27T22:18:44.676Z,72.30
2023-04-27T22:21:12.885Z,72.40
2023-04-27T22:23:40.131Z,72.50
2023-04-27T22:26:08.874Z,72.50
2023-04-27T22:28:35.834Z,72.60
2023-04-27T22:31:02.559Z,72.70
2023-04-27T22:33:29.269Z,73.30
2023-04-27T22:35:55.977Z,73.40
2023-04-27T22:38:22.609Z,73.60
2023-04-27T22:40:49.316Z,74.30
2023-04-27T22:43:16.067Z,74.50
2023-04-27T22:45:42.693Z,74.60
2023-04-27T22:48:09.447Z,74.50
2023-04-27T22:50:36.170Z,74.50
2023-04-27T22:53:06.213Z,74.60
2023-04-27T22:55:32.825Z,74.70
2023-04-27T22:57:59.498Z,75.20
2023-04-27T23:00:26.278Z,75.00
2023-04-27T23:02:53.111Z,75.50
2023-04-27T23:05:20.050Z,75.60
2023-04-27T23:07:46.805Z,76.00
2023-04-27T23:10:15.071Z,76.20
2023-04-27T23:12:41.884Z,76.20
2023-04-27T23:15:09.400Z,76.10
2023-04-27T23:17:36.333Z,76.20
2023-04-27T23:20:24.167Z,76.50
2023-04-27T23:22:53.763Z,76.90
2023-04-27T23:25:20.632Z,77.20
2023-04-27T23:27:48.097Z,77.40
2023-04-27T23:30:16.135Z,77.70
2023-04-27T23:32:43.096Z,77.90
2023-04-27T23:35:09.850Z,78.50
2023-04-27T23:37:36.505Z,79.80
2023-04-27T23:40:04.440Z,81.00
2023-04-27T23:42:31.074Z,81.20
2023-04-27T23:44:58.305Z,81.60
2023-04-27T23:47:24.956Z,81.40
2023-04-27T23:49:51.571Z,81.40
2023-04-27T23:52:18.246Z,81.70
2023-04-27T23:54:44.897Z,81.70
2023-04-27T23:57:11.579Z,82.20
2023-04-27T23:59:38.340Z,82.80
